createdAt,value
2019-05-19T00:00:25.692Z,78.16
2019-05-19T00:03:04.413Z,77.95
2019-05-19T00:05:39.249Z,78.03
2019-05-19T00:08:12.167Z,78.05
2019-05-19T00:10:47.144Z,78.02
2019-05-19T00:13:20.687Z,78.08
2019-05-19T00:15:53.293Z,78.06
2019-05-19T00:18:25.917Z,78.22
2019-05-19T00:21:00.319Z,78.19
2019-05-19T00:23:32.973Z,78.21
2019-05-19T00:26:06.456Z,78.17
2019-05-19T00:28:39.756Z,78.36
2019-05-19T00:31:12.247Z,78.54
2019-05-19T00:33:44.797Z,78.71
2019-05-19T00:36:19.585Z,78.77
2019-05-19T00:38:52.423Z,78.90
2019-05-19T00:41:25.685Z,78.96
2019-05-19T00:43:58.204Z,79.01
2019-05-19T00:46:30.846Z,79.05
2019-05-19T00:49:04.196Z,79.00
2019-05-19T00:51:36.832Z,79.10
2019-05-19T00:54:09.305Z,79.03
2019-05-19T00:56:42.147Z,79.06
2019-05-19T00:59:14.669Z,79.17
2019-05-19T01:01:47.276Z,79.26
2019-05-19T01:04:20.836Z,79.41
2019-05-19T01:06:53.541Z,79.46
2019-05-19T01:09:26.060Z,79.35
2019-05-19T01:11:58.661Z,79.19
2019-05-19T01:14:34.614Z,79.27
2019-05-19T01:17:07.272Z,79.33
2019-05-19T01:19:39.804Z,79.33
2019-05-19T01:22:12.391Z,79.32
2019-05-19T01:24:47.640Z,79.32
2019-05-19T01:27:20.238Z,79.36
2019-05-19T01:29:52.716Z,79.36
2019-05-19T01:32:25.167Z,79.52
2019-05-19T01:34:57.704Z,79.60
2019-05-19T01:37:30.641Z,79.47
2019-05-19T01:40:07.651Z,79.59
2019-05-19T01:42:40.125Z,79.63
2019-05-19T01:45:14.636Z,79.67
2019-05-19T01:47:47.235Z,79.72
2019-05-19T01:50:20.671Z,79.87
2019-05-19T01:52:53.871Z,79.97
2019-05-19T01:55:27.559Z,80.10
2019-05-19T01:58:01.734Z,80.14
2019-05-19T02:00:34.383Z,80.18
2019-05-19T02:03:08.990Z,80.25
2019-05-19T02:05:41.640Z,80.34
2019-05-19T02:08:14.927Z,80.46
2019-05-19T02:10:47.604Z,80.57
2019-05-19T02:13:20.080Z,80.64
2019-05-19T02:15:53.193Z,80.64
2019-05-19T02:18:25.703Z,80.63
2019-05-19T02:20:58.214Z,80.71
2019-05-19T02:23:31.091Z,80.84
2019-05-19T02:26:03.850Z,80.91
2019-05-19T02:28:36.435Z,80.97
2019-05-19T02:31:09.520Z,80.91
2019-05-19T02:33:41.994Z,81.02
2019-05-19T02:36:14.462Z,80.93
2019-05-19T02:38:46.985Z,80.93
2019-05-19T02:41:19.553Z,80.97
2019-05-19T02:43:53.050Z,80.97
2019-05-19T02:46:25.797Z,80.94
2019-05-19T02:48:59.386Z,80.89
2019-05-19T02:51:32.660Z,80.86
2019-05-19T02:54:06.068Z,80.77
2019-05-19T02:56:38.721Z,80.69
2019-05-19T02:59:11.365Z,80.66
2019-05-19T03:02:05.451Z,80.61
2019-05-19T03:04:50.239Z,80.52
2019-05-19T03:07:22.895Z,80.56
2019-05-19T03:09:55.355Z,80.48
2019-05-19T03:12:27.828Z,80.47
2019-05-19T03:15:03.197Z,80.53
2019-05-19T03:17:35.832Z,80.41
2019-05-19T03:20:09.861Z,80.46
2019-05-19T03:22:42.421Z,80.45
2019-05-19T03:25:16.936Z,80.55
2019-05-19T03:27:49.684Z,80.71
2019-05-19T03:30:45.355Z,80.67
2019-05-19T03:33:21.522Z,80.78
2019-05-19T03:35:55.782Z,80.81
2019-05-19T03:38:28.443Z,81.89
2019-05-19T03:41:00.974Z,82.66
2019-05-19T03:43:33.567Z,82.83
2019-05-19T03:46:06.377Z,83.23
2019-05-19T03:48:39.122Z,83.35
2019-05-19T03:51:29.457Z,83.26
2019-05-19T03:54:04.368Z,82.95
2019-05-19T03:56:36.900Z,82.66
2019-05-19T03:59:09.412Z,82.36
2019-05-19T04:01:42.038Z,82.11
2019-05-19T04:04:14.723Z,81.77
2019-05-19T04:06:47.307Z,81.29
2019-05-19T04:09:19.750Z,80.98
2019-05-19T04:11:52.607Z,80.93
2019-05-19T04:14:25.186Z,81.31
2019-05-19T04:16:57.599Z,81.71
2019-05-19T04:19:30.071Z,81.94
2019-05-19T04:22:02.618Z,81.92
2019-05-19T04:24:36.761Z,81.79
2019-05-19T04:27:09.201Z,81.70
2019-05-19T04:29:41.950Z,81.54
2019-05-19T04:32:14.497Z,81.36
2019-05-19T04:34:50.216Z,81.13
2019-05-19T04:37:22.704Z,81.04
2019-05-19T04:39:55.302Z,81.00
2019-05-19T04:42:27.915Z,80.90
2019-05-19T04:45:00.538Z,80.83
2019-05-19T04:47:36.126Z,80.76
2019-05-19T04:50:08.735Z,80.81
2019-05-19T04:52:41.275Z,80.86
2019-05-19T04:55:13.930Z,80.84
2019-05-19T04:57:47.817Z,80.65
2019-05-19T05:00:20.486Z,80.50
2019-05-19T05:02:53.617Z,80.33
2019-05-19T05:05:27.264Z,80.10
2019-05-19T05:07:59.823Z,79.99
2019-05-19T05:10:32.364Z,79.94
2019-05-19T05:13:04.983Z,79.96
2019-05-19T05:15:37.616Z,79.97
2019-05-19T05:18:10.116Z,80.02
2019-05-19T05:20:42.775Z,80.07
2019-05-19T05:23:15.974Z,80.22
2019-05-19T05:25:48.739Z,80.32
2019-05-19T05:28:22.383Z,80.58
2019-05-19T05:30:54.852Z,80.66
2019-05-19T05:33:27.672Z,80.66
2019-05-19T05:36:01.124Z,80.65
2019-05-19T05:38:35.359Z,80.50
2019-05-19T05:41:07.838Z,80.36
2019-05-19T05:43:41.237Z,80.33
2019-05-19T05:46:13.892Z,80.30
2019-05-19T05:48:49.635Z,80.50
2019-05-19T05:51:25.370Z,80.49
2019-05-19T05:53:59.766Z,80.54
2019-05-19T05:56:33.920Z,80.47
2019-05-19T05:59:15.415Z,80.28
2019-05-19T06:01:51.653Z,80.14
2019-05-19T06:04:25.176Z,79.92
2019-05-19T06:06:58.709Z,79.71
2019-05-19T06:09:33.703Z,79.58
2019-05-19T06:12:06.822Z,79.52
2019-05-19T06:14:43.527Z,79.42
2019-05-19T06:17:17.008Z,79.40
2019-05-19T06:19:50.528Z,79.51
2019-05-19T06:22:25.296Z,79.38
2019-05-19T06:24:59.516Z,79.12
2019-05-19T06:27:32.300Z,78.89
2019-05-19T06:30:08.959Z,78.74
2019-05-19T06:32:47.948Z,78.31
2019-05-19T06:35:20.656Z,77.73
2019-05-19T06:37:53.916Z,77.26
2019-05-19T06:40:26.732Z,76.84
2019-05-19T06:43:00.892Z,76.39
2019-05-19T06:45:34.250Z,75.95
2019-05-19T06:48:07.128Z,75.48
2019-05-19T06:51:07.567Z,75.31
2019-05-19T06:53:41.959Z,75.34
2019-05-19T06:56:14.581Z,75.12
2019-05-19T06:58:48.884Z,74.95
2019-05-19T07:01:21.493Z,74.49
2019-05-19T07:03:54.096Z,73.91
2019-05-19T07:06:26.936Z,73.64
2019-05-19T07:08:59.428Z,73.55
2019-05-19T07:11:33.120Z,73.51
2019-05-19T07:14:05.665Z,73.44
2019-05-19T07:16:38.273Z,73.15
2019-05-19T07:19:10.765Z,72.87
2019-05-19T07:21:43.510Z,72.87
2019-05-19T07:24:16.172Z,73.01
2019-05-19T07:26:48.786Z,72.80
2019-05-19T07:29:24.562Z,72.45
2019-05-19T07:31:58.148Z,72.07
2019-05-19T07:34:31.843Z,71.23
2019-05-19T07:37:05.143Z,70.19
2019-05-19T07:39:39.033Z,70.37
2019-05-19T07:42:13.339Z,70.40
2019-05-19T07:44:46.005Z,71.20
2019-05-19T07:47:19.396Z,72.15
2019-05-19T07:49:51.984Z,72.74
2019-05-19T07:52:26.352Z,72.99
2019-05-19T07:55:03.471Z,72.38
2019-05-19T07:57:44.588Z,71.36
2019-05-19T08:00:17.160Z,71.25
2019-05-19T08:02:51.330Z,71.31
2019-05-19T08:05:24.050Z,70.72
2019-05-19T08:07:56.644Z,69.62
2019-05-19T08:10:29.271Z,68.65
2019-05-19T08:13:01.933Z,68.53
2019-05-19T08:15:35.611Z,68.21
2019-05-19T08:18:08.376Z,68.15
2019-05-19T08:20:41.550Z,67.40
2019-05-19T08:23:14.204Z,66.73
2019-05-19T08:25:49.383Z,67.18
2019-05-19T08:28:23.496Z,67.11
2019-05-19T08:31:02.731Z,66.12
2019-05-19T08:33:41.804Z,66.07
2019-05-19T08:36:14.698Z,66.09
2019-05-19T08:38:47.132Z,65.45
2019-05-19T08:41:19.495Z,64.38
2019-05-19T08:43:59.418Z,63.50
2019-05-19T08:46:32.040Z,63.33
2019-05-19T08:49:04.461Z,62.86
2019-05-19T08:51:37.360Z,62.21
2019-05-19T08:54:14.864Z,61.85
2019-05-19T08:56:50.266Z,60.88
2019-05-19T08:59:22.661Z,57.86
2019-05-19T09:01:55.012Z,57.44
2019-05-19T09:04:28.363Z,56.81
2019-05-19T09:07:01.643Z,57.25
2019-05-19T09:09:34.998Z,54.38
2019-05-19T09:12:07.325Z,53.70
2019-05-19T09:14:40.064Z,52.56
2019-05-19T09:17:13.225Z,52.08
2019-05-19T09:19:45.682Z,51.63
2019-05-19T09:22:18.696Z,50.75
2019-05-19T09:24:52.065Z,49.33
2019-05-19T09:27:24.367Z,47.64
2019-05-19T09:29:58.284Z,47.36
2019-05-19T09:32:32.488Z,48.57
2019-05-19T09:35:07.632Z,47.51
2019-05-19T09:37:46.671Z,46.94
2019-05-19T09:40:20.946Z,47.13
2019-05-19T09:42:54.884Z,46.23
2019-05-19T09:45:29.134Z,45.03
2019-05-19T09:48:09.589Z,46.59
2019-05-19T09:50:46.551Z,47.65
2019-05-19T09:53:18.908Z,46.15
2019-05-19T09:55:52.949Z,45.23
2019-05-19T09:58:26.545Z,46.24
2019-05-19T10:01:00.966Z,46.09
2019-05-19T10:03:34.200Z,46.13
2019-05-19T10:06:07.665Z,47.34
2019-05-19T10:09:01.087Z,47.31
2019-05-19T10:12:04.509Z,47.14
2019-05-19T10:14:38.894Z,46.20
2019-05-19T10:17:12.906Z,44.75
2019-05-19T10:19:45.331Z,44.25
2019-05-19T10:22:20.106Z,43.32
2019-05-19T10:25:18.108Z,42.94
2019-05-19T10:27:55.697Z,43.99
2019-05-19T10:30:30.028Z,44.26
2019-05-19T10:33:03.996Z,43.92
2019-05-19T10:35:37.440Z,43.35
2019-05-19T10:38:11.795Z,43.72
2019-05-19T10:40:44.222Z,43.19
2019-05-19T10:43:19.000Z,43.15
2019-05-19T10:45:59.878Z,41.31
2019-05-19T10:48:32.943Z,41.43
2019-05-19T10:51:06.318Z,40.53
2019-05-19T10:53:38.711Z,39.69
2019-05-19T10:56:11.059Z,39.68
2019-05-19T10:58:44.473Z,38.22
2019-05-19T11:01:16.885Z,38.94
2019-05-19T11:03:49.326Z,37.71
2019-05-19T11:06:22.179Z,37.27
2019-05-19T11:08:55.217Z,39.03
2019-05-19T11:11:28.312Z,39.51
2019-05-19T11:14:03.244Z,39.16
2019-05-19T11:16:35.634Z,38.48
2019-05-19T11:19:08.085Z,39.25
2019-05-19T11:21:40.445Z,38.74
2019-05-19T11:24:15.612Z,37.46
2019-05-19T11:26:48.588Z,37.96
2019-05-19T11:29:21.240Z,36.08
2019-05-19T11:31:53.887Z,37.03
2019-05-19T11:34:27.331Z,36.20
2019-05-19T11:37:00.916Z,34.84
2019-05-19T11:39:35.241Z,36.88
2019-05-19T11:42:08.833Z,37.93
2019-05-19T11:44:42.368Z,38.27
2019-05-19T11:47:14.927Z,37.06
2019-05-19T11:49:47.461Z,35.84
2019-05-19T11:52:21.512Z,33.77
2019-05-19T11:54:55.468Z,33.33
2019-05-19T11:57:28.144Z,37.09
2019-05-19T12:00:04.496Z,37.43
2019-05-19T12:02:37.030Z,36.54
2019-05-19T12:05:10.880Z,34.46
2019-05-19T12:07:43.561Z,34.38
2019-05-19T12:10:16.812Z,36.37
2019-05-19T12:12:50.421Z,35.09
2019-05-19T12:15:23.089Z,33.98
2019-05-19T12:17:58.751Z,32.75
2019-05-19T12:20:32.897Z,35.13
2019-05-19T12:23:05.553Z,34.13
2019-05-19T12:25:38.948Z,32.90
2019-05-19T12:28:11.798Z,34.38
2019-05-19T12:30:47.222Z,34.08
2019-05-19T12:33:20.121Z,33.81
2019-05-19T12:35:53.740Z,35.60
2019-05-19T12:38:26.733Z,36.21
2019-05-19T12:40:59.524Z,35.85
2019-05-19T12:43:35.954Z,35.87
2019-05-19T12:46:16.442Z,35.62
2019-05-19T12:48:50.366Z,34.56
2019-05-19T12:51:26.675Z,35.70
2019-05-19T12:53:59.591Z,36.04
2019-05-19T12:56:39.857Z,37.40
2019-05-19T12:59:16.629Z,36.93
2019-05-19T13:01:49.378Z,37.10
2019-05-19T13:04:23.837Z,37.36
2019-05-19T13:06:59.372Z,37.62
2019-05-19T13:09:37.613Z,38.37
2019-05-19T13:12:10.379Z,38.91
2019-05-19T13:14:46.116Z,39.13
2019-05-19T13:17:20.177Z,39.24
2019-05-19T13:19:52.857Z,39.71
2019-05-19T13:22:25.356Z,39.11
2019-05-19T13:24:58.012Z,39.99
2019-05-19T13:27:33.323Z,40.15
2019-05-19T13:30:07.017Z,39.77
2019-05-19T13:32:40.623Z,40.38
2019-05-19T13:35:13.294Z,40.45
2019-05-19T13:37:46.035Z,41.14
2019-05-19T13:40:18.656Z,42.15
2019-05-19T13:42:52.091Z,42.22
2019-05-19T13:45:25.840Z,42.81
2019-05-19T13:48:00.220Z,43.40
2019-05-19T13:50:32.855Z,43.46
2019-05-19T13:53:05.419Z,43.74
2019-05-19T13:55:39.249Z,44.31
2019-05-19T13:58:13.423Z,44.83
2019-05-19T14:00:46.919Z,45.08
2019-05-19T14:03:19.497Z,44.32
2019-05-19T14:05:52.209Z,44.14
2019-05-19T14:08:24.898Z,44.51
2019-05-19T14:10:57.621Z,44.42
2019-05-19T14:13:30.852Z,44.55
2019-05-19T14:16:03.269Z,44.84
2019-05-19T14:18:35.620Z,45.06
2019-05-19T14:21:08.078Z,45.22
2019-05-19T14:23:41.330Z,45.20
2019-05-19T14:26:14.737Z,45.23
2019-05-19T14:28:47.668Z,45.53
2019-05-19T14:31:20.103Z,45.59
2019-05-19T14:33:52.905Z,45.91
2019-05-19T14:36:25.436Z,45.56
2019-05-19T14:39:05.495Z,45.71
2019-05-19T14:41:52.275Z,45.51
2019-05-19T14:44:29.947Z,45.77
2019-05-19T14:47:05.337Z,46.01
2019-05-19T14:49:38.587Z,46.00
2019-05-19T14:52:12.295Z,45.41
2019-05-19T14:54:46.122Z,45.27
2019-05-19T14:57:20.532Z,45.50
2019-05-19T14:59:54.453Z,45.37
2019-05-19T15:02:27.757Z,44.90
2019-05-19T15:05:00.124Z,44.73
2019-05-19T15:07:35.155Z,44.39
2019-05-19T15:10:09.811Z,44.21
2019-05-19T15:12:42.404Z,43.68
2019-05-19T15:15:17.141Z,43.16
2019-05-19T15:17:49.496Z,43.73
2019-05-19T15:20:25.740Z,43.98
2019-05-19T15:23:00.441Z,44.23
2019-05-19T15:25:34.303Z,43.94
2019-05-19T15:28:07.624Z,43.40
2019-05-19T15:30:40.397Z,43.73
2019-05-19T15:33:12.775Z,43.39
2019-05-19T15:35:47.858Z,43.05
2019-05-19T15:38:20.280Z,43.26
2019-05-19T15:40:56.638Z,42.95
2019-05-19T15:43:38.300Z,42.74
2019-05-19T15:46:13.151Z,42.77
2019-05-19T15:48:48.242Z,42.38
2019-05-19T15:51:28.436Z,43.13
2019-05-19T15:54:02.229Z,43.02
2019-05-19T15:56:35.472Z,42.96
2019-05-19T15:59:15.636Z,43.22
2019-05-19T16:01:51.648Z,43.49
2019-05-19T16:04:25.338Z,42.92
2019-05-19T16:06:59.238Z,42.82
2019-05-19T16:09:31.642Z,43.21
2019-05-19T16:12:04.743Z,44.40
2019-05-19T16:14:37.894Z,45.15
2019-05-19T16:17:11.343Z,45.77
2019-05-19T16:19:43.740Z,45.80
2019-05-19T16:22:16.131Z,45.89
2019-05-19T16:24:48.509Z,45.81
2019-05-19T16:27:22.358Z,45.27
2019-05-19T16:29:55.727Z,45.27
2019-05-19T16:32:29.735Z,45.22
2019-05-19T16:35:05.136Z,45.30
2019-05-19T16:37:41.314Z,45.14
2019-05-19T16:40:14.221Z,45.19
2019-05-19T16:42:46.596Z,45.22
2019-05-19T16:45:20.208Z,45.63
2019-05-19T16:47:52.626Z,45.98
2019-05-19T16:50:24.953Z,46.17
2019-05-19T16:52:58.003Z,46.45
2019-05-19T16:55:33.582Z,47.43
2019-05-19T16:58:20.001Z,48.65
2019-05-19T17:00:57.753Z,49.11
2019-05-19T17:03:33.388Z,49.01
2019-05-19T17:06:07.263Z,48.80
2019-05-19T17:08:39.623Z,49.17
2019-05-19T17:11:18.474Z,50.05
2019-05-19T17:13:54.138Z,50.50
2019-05-19T17:16:27.645Z,50.54
2019-05-19T17:19:01.260Z,50.43
2019-05-19T17:21:34.587Z,50.82
2019-05-19T17:24:09.207Z,51.35
2019-05-19T17:26:43.417Z,51.71
2019-05-19T17:29:18.785Z,52.31
2019-05-19T17:32:05.555Z,52.73
2019-05-19T17:34:38.574Z,53.82
2019-05-19T17:37:14.310Z,54.75
2019-05-19T17:39:48.512Z,55.15
2019-05-19T17:42:21.176Z,54.91
2019-05-19T17:44:54.583Z,55.35
2019-05-19T17:47:27.741Z,55.84
2019-05-19T17:50:01.639Z,56.28
2019-05-19T17:52:35.751Z,55.71
2019-05-19T17:55:10.641Z,55.64
2019-05-19T17:57:46.640Z,55.53
2019-05-19T18:00:44.450Z,55.43
2019-05-19T18:03:17.874Z,55.38
2019-05-19T18:05:51.241Z,55.61
2019-05-19T18:08:24.556Z,55.89
2019-05-19T18:10:59.214Z,56.41
2019-05-19T18:13:33.355Z,56.42
2019-05-19T18:16:05.698Z,56.40
2019-05-19T18:18:41.076Z,56.64
2019-05-19T18:21:15.048Z,56.84
2019-05-19T18:23:48.236Z,56.96
2019-05-19T18:26:22.134Z,57.07
2019-05-19T18:28:56.403Z,57.73
2019-05-19T18:31:31.348Z,58.37
2019-05-19T18:34:04.585Z,58.99
2019-05-19T18:36:40.038Z,59.35
2019-05-19T18:39:13.371Z,59.67
2019-05-19T18:41:45.857Z,59.69
2019-05-19T18:44:19.255Z,59.65
2019-05-19T18:46:54.577Z,59.84
2019-05-19T18:49:27.114Z,60.47
2019-05-19T18:52:03.511Z,60.60
2019-05-19T18:54:36.506Z,60.83
2019-05-19T18:57:09.133Z,61.02
2019-05-19T18:59:47.496Z,61.08
2019-05-19T19:02:24.701Z,61.22
2019-05-19T19:05:02.704Z,61.42
2019-05-19T19:07:43.574Z,61.73
2019-05-19T19:10:17.955Z,62.02
2019-05-19T19:12:52.706Z,62.19
2019-05-19T19:15:30.420Z,62.44
2019-05-19T19:18:05.058Z,62.67
2019-05-19T19:20:42.801Z,63.01
2019-05-19T19:23:17.722Z,63.30
2019-05-19T19:25:50.422Z,63.45
2019-05-19T19:28:23.672Z,63.79
2019-05-19T19:30:57.572Z,64.07
2019-05-19T19:33:31.802Z,64.33
2019-05-19T19:36:04.245Z,64.45
2019-05-19T19:38:37.491Z,64.71
2019-05-19T19:41:11.105Z,64.85
2019-05-19T19:43:45.203Z,65.03
2019-05-19T19:46:18.380Z,65.21
2019-05-19T19:48:54.855Z,65.56
2019-05-19T19:51:28.875Z,65.90
2019-05-19T19:54:01.201Z,65.94
2019-05-19T19:56:33.772Z,66.18
2019-05-19T19:59:06.115Z,66.42
2019-05-19T20:01:39.457Z,66.74
2019-05-19T20:04:12.388Z,66.98
2019-05-19T20:06:44.766Z,67.30
2019-05-19T20:09:21.346Z,67.50
2019-05-19T20:11:55.964Z,67.54
2019-05-19T20:14:30.275Z,67.54
2019-05-19T20:17:03.976Z,67.60
2019-05-19T20:19:37.591Z,67.69
2019-05-19T20:22:12.941Z,67.74
2019-05-19T20:24:47.428Z,67.89
2019-05-19T20:27:23.134Z,67.84
2019-05-19T20:29:58.738Z,67.98
2019-05-19T20:32:32.514Z,68.08
2019-05-19T20:35:08.461Z,68.15
2019-05-19T20:37:43.079Z,68.13
2019-05-19T20:40:18.892Z,68.09
2019-05-19T20:42:56.565Z,68.17
2019-05-19T20:45:32.337Z,68.22
2019-05-19T20:48:07.322Z,68.29
2019-05-19T20:50:45.021Z,68.42
2019-05-19T20:53:18.474Z,68.50
2019-05-19T20:55:50.839Z,68.56
2019-05-19T20:58:25.919Z,68.72
2019-05-19T21:01:01.226Z,68.72
2019-05-19T21:03:34.237Z,68.90
2019-05-19T21:06:07.216Z,68.87
2019-05-19T21:08:41.002Z,69.14
2019-05-19T21:11:14.297Z,69.40
2019-05-19T21:13:49.574Z,69.69
2019-05-19T21:16:22.824Z,69.95
2019-05-19T21:18:57.327Z,70.21
2019-05-19T21:21:30.192Z,70.45
2019-05-19T21:24:04.480Z,70.69
2019-05-19T21:26:38.259Z,70.66
2019-05-19T21:29:11.994Z,70.96
2019-05-19T21:31:45.393Z,71.01
2019-05-19T21:34:25.589Z,71.31
2019-05-19T21:36:59.735Z,71.46
2019-05-19T21:39:32.643Z,71.55
2019-05-19T21:42:05.029Z,71.67
2019-05-19T21:44:38.261Z,71.74
2019-05-19T21:47:10.590Z,71.85
2019-05-19T21:49:43.797Z,71.99
2019-05-19T21:52:16.203Z,72.23
2019-05-19T21:54:48.599Z,72.24
2019-05-19T21:57:21.563Z,72.30
2019-05-19T21:59:54.528Z,72.69
2019-05-19T22:02:26.845Z,72.91
2019-05-19T22:05:01.614Z,73.07
2019-05-19T22:07:55.184Z,73.29
2019-05-19T22:10:39.998Z,73.08
2019-05-19T22:13:12.329Z,73.36
2019-05-19T22:15:44.645Z,73.51
2019-05-19T22:18:16.907Z,73.52
2019-05-19T22:20:50.792Z,73.55
2019-05-19T22:23:23.712Z,73.70
2019-05-19T22:25:56.019Z,73.77
2019-05-19T22:28:28.580Z,73.48
2019-05-19T22:31:00.901Z,73.48
2019-05-19T22:33:33.247Z,73.51
2019-05-19T22:36:05.604Z,73.51
2019-05-19T22:38:38.715Z,73.46
2019-05-19T22:41:13.009Z,73.44
2019-05-19T22:43:45.988Z,73.49
2019-05-19T22:46:19.004Z,73.50
2019-05-19T22:48:51.316Z,73.62
2019-05-19T22:51:23.690Z,73.74
2019-05-19T22:53:56.104Z,73.73
2019-05-19T22:56:28.487Z,73.53
2019-05-19T22:59:02.760Z,73.56
2019-05-19T23:01:49.680Z,73.62
2019-05-19T23:04:24.942Z,73.77
2019-05-19T23:06:58.066Z,73.86
2019-05-19T23:09:31.367Z,73.99
2019-05-19T23:12:05.143Z,74.08
2019-05-19T23:14:38.447Z,74.05
2019-05-19T23:17:10.837Z,73.94
2019-05-19T23:19:43.187Z,73.84
2019-05-19T23:22:15.512Z,73.99
2019-05-19T23:24:47.784Z,74.22
2019-05-19T23:27:22.926Z,74.22
2019-05-19T23:29:56.726Z,74.06
2019-05-19T23:32:29.597Z,74.19
2019-05-19T23:35:01.914Z,74.17
2019-05-19T23:37:34.205Z,74.27
2019-05-19T23:40:06.808Z,74.09
2019-05-19T23:42:39.828Z,74.28
2019-05-19T23:45:14.060Z,74.26
2019-05-19T23:47:48.430Z,74.19
2019-05-19T23:50:21.693Z,74.20
2019-05-19T23:52:54.908Z,74.26
2019-05-19T23:55:27.296Z,74.47
2019-05-19T23:58:00.156Z,74.49
